createdAt,value
2023-03-06T00:02:57.003Z,53.55
2023-03-06T00:06:04.189Z,28.30
2023-03-06T00:09:10.754Z,28.52
2023-03-06T00:12:17.526Z,40.70
2023-03-06T00:15:24.255Z,32.50
2023-03-06T00:18:33.672Z,35.40
2023-03-06T00:21:39.664Z,38.04
2023-03-06T00:24:47.317Z,39.96
2023-03-06T00:27:53.937Z,68.88
2023-03-06T00:31:01.423Z,47.57
2023-03-06T00:34:11.750Z,34.91
2023-03-06T00:37:19.325Z,34.55
2023-03-06T00:40:25.564Z,35.10
2023-03-06T00:43:33.025Z,35.26
2023-03-06T00:46:39.379Z,35.91
2023-03-06T00:49:48.735Z,34.78
2023-03-06T00:52:54.609Z,33.98
2023-03-06T00:56:01.263Z,31.61
2023-03-06T00:59:08.674Z,32.97
2023-03-06T01:02:15.612Z,35.15
2023-03-06T01:05:24.979Z,36.85
2023-03-06T01:08:31.704Z,41.22
2023-03-06T01:11:37.474Z,43.11
2023-03-06T01:14:44.182Z,46.21
2023-03-06T01:17:50.199Z,44.13
2023-03-06T01:20:59.369Z,43.99
2023-03-06T01:24:05.182Z,47.52
2023-03-06T01:27:12.192Z,49.09
2023-03-06T01:30:18.578Z,53.04
2023-03-06T01:33:25.467Z,57.27
2023-03-06T01:36:33.945Z,53.04
2023-03-06T01:39:42.488Z,52.62
2023-03-06T01:42:48.343Z,51.62
2023-03-06T01:46:42.395Z,51.42
2023-03-06T01:49:48.261Z,50.21
2023-03-06T01:53:03.985Z,49.68
2023-03-06T01:56:11.171Z,50.71
2023-03-06T01:59:19.479Z,52.18
2023-03-06T02:02:25.966Z,55.25
2023-03-06T02:05:32.848Z,57.78
2023-03-06T02:08:43.107Z,58.36
2023-03-06T02:11:49.833Z,59.14
2023-03-06T02:14:56.783Z,53.19
2023-03-06T02:18:04.176Z,51.85
2023-03-06T02:21:13.171Z,50.02
2023-03-06T02:24:40.522Z,55.26
2023-03-06T02:27:49.241Z,51.56
2023-03-06T02:30:59.940Z,43.13
2023-03-06T02:34:31.202Z,41.63
2023-03-06T02:37:37.879Z,42.06
2023-03-06T02:40:49.978Z,40.80
2023-03-06T02:43:59.361Z,42.06
2023-03-06T02:47:05.230Z,43.01
2023-03-06T02:50:13.647Z,38.81
2023-03-06T02:53:22.541Z,39.16
2023-03-06T02:56:29.133Z,40.11
2023-03-06T02:59:38.775Z,40.04
2023-03-06T03:02:47.057Z,39.93
2023-03-06T03:05:52.949Z,41.36
2023-03-06T03:09:04.070Z,42.18
2023-03-06T03:12:11.365Z,42.40
2023-03-06T03:15:22.124Z,47.27
2023-03-06T03:18:27.893Z,48.63
2023-03-06T03:21:34.755Z,46.25
2023-03-06T03:24:40.641Z,41.42
2023-03-06T03:27:47.445Z,39.78
2023-03-06T03:30:55.978Z,40.80
2023-03-06T03:34:04.844Z,42.36
2023-03-06T03:37:14.169Z,45.01
2023-03-06T03:40:22.696Z,44.15
2023-03-06T03:43:29.988Z,43.92
2023-03-06T03:46:41.371Z,46.74
2023-03-06T03:49:52.152Z,44.01
2023-03-06T03:53:00.225Z,42.69
2023-03-06T03:56:06.837Z,40.15
2023-03-06T03:59:18.819Z,38.19
2023-03-06T04:02:38.148Z,36.39
2023-03-06T04:05:54.107Z,35.76
2023-03-06T04:09:00.434Z,34.92
2023-03-06T04:12:08.960Z,35.23
2023-03-06T04:15:16.302Z,34.60
2023-03-06T04:18:27.487Z,39.23
2023-03-06T04:21:37.900Z,45.43
2023-03-06T04:24:45.785Z,41.67
2023-03-06T04:27:52.361Z,37.09
2023-03-06T04:30:59.135Z,41.68
2023-03-06T04:34:07.873Z,56.24
2023-03-06T04:37:24.283Z,39.60
2023-03-06T04:40:34.805Z,38.17
2023-03-06T04:43:41.807Z,37.72
2023-03-06T04:46:47.610Z,41.19
2023-03-06T04:49:56.964Z,44.00
2023-03-06T04:53:04.929Z,44.99
2023-03-06T04:56:12.070Z,42.12
2023-03-06T04:59:17.841Z,37.50
2023-03-06T05:02:24.862Z,34.64
2023-03-06T05:05:33.983Z,34.53
2023-03-06T05:08:40.544Z,35.16
2023-03-06T05:11:46.312Z,35.31
2023-03-06T05:14:52.925Z,30.43
2023-03-06T05:17:58.700Z,29.12
2023-03-06T05:21:09.303Z,29.40
2023-03-06T05:24:15.206Z,30.26
2023-03-06T05:27:21.893Z,28.96
2023-03-06T05:30:28.146Z,33.34
2023-03-06T05:33:35.516Z,35.92
2023-03-06T05:36:44.635Z,38.14
2023-03-06T05:39:51.306Z,37.18
2023-03-06T05:42:57.071Z,38.20
2023-03-06T05:46:05.725Z,38.28
2023-03-06T05:49:11.848Z,38.40
2023-03-06T05:52:21.494Z,36.94
2023-03-06T05:55:29.801Z,32.78
2023-03-06T05:58:38.022Z,31.67
2023-03-06T06:01:43.964Z,31.33
2023-03-06T06:04:51.268Z,31.03
2023-03-06T06:07:59.650Z,30.74
2023-03-06T06:11:12.322Z,30.40
2023-03-06T06:14:31.220Z,30.03
2023-03-06T06:23:26.874Z,33.48
2023-03-06T06:27:10.552Z,32.69
2023-03-06T06:30:48.847Z,32.83
2023-03-06T06:34:25.987Z,35.40
2023-03-06T06:38:05.998Z,36.36
2023-03-06T06:42:11.026Z,37.14
2023-03-06T06:45:34.549Z,35.33
2023-03-06T06:48:41.127Z,40.51
2023-03-06T06:51:47.029Z,41.44
2023-03-06T06:54:53.853Z,39.92
2023-03-06T06:58:02.225Z,39.81
2023-03-06T07:01:10.329Z,39.21
2023-03-06T07:04:16.920Z,37.36
2023-03-06T07:07:25.416Z,34.44
2023-03-06T07:10:32.052Z,32.17
2023-03-06T07:13:41.623Z,30.07
2023-03-06T07:16:47.364Z,29.13
2023-03-06T07:19:53.996Z,27.76
2023-03-06T07:22:59.830Z,28.51
2023-03-06T07:26:07.060Z,26.99
2023-03-06T07:29:15.494Z,27.99
2023-03-06T07:32:22.089Z,28.39
2023-03-06T07:35:29.894Z,27.90
2023-03-06T07:38:36.570Z,30.05
2023-03-06T07:41:42.420Z,30.62
2023-03-06T07:44:51.650Z,29.30
2023-03-06T07:47:57.826Z,27.46
2023-03-06T07:51:10.282Z,28.25
2023-03-06T07:54:16.193Z,29.38
2023-03-06T07:57:22.929Z,28.42
2023-03-06T08:00:31.495Z,29.67
2023-03-06T08:03:41.364Z,29.68
2023-03-06T08:06:47.134Z,25.81
2023-03-06T08:09:53.946Z,27.14
2023-03-06T08:13:00.021Z,26.23
2023-03-06T08:16:10.674Z,24.13
2023-03-06T08:19:16.518Z,22.20
2023-03-06T08:22:23.884Z,21.79
2023-03-06T08:25:29.742Z,22.40
2023-03-06T08:28:37.022Z,22.93
2023-03-06T08:31:48.663Z,22.05
2023-03-06T08:34:56.131Z,20.34
2023-03-06T08:38:02.045Z,19.27
2023-03-06T08:41:08.841Z,18.13
2023-03-06T08:44:15.667Z,18.24
2023-03-06T08:47:24.915Z,19.18
2023-03-06T08:50:30.862Z,19.00
2023-03-06T08:53:43.084Z,18.71
2023-03-06T08:56:49.527Z,18.40
2023-03-06T08:59:56.079Z,18.29
2023-03-06T09:03:04.584Z,17.04
2023-03-06T09:06:11.262Z,18.12
2023-03-06T09:09:18.291Z,17.65
2023-03-06T09:12:24.031Z,15.63
2023-03-06T09:15:30.690Z,15.69
2023-03-06T09:18:39.659Z,16.64
2023-03-06T09:21:46.280Z,16.67
2023-03-06T09:24:52.659Z,15.26
2023-03-06T09:28:10.890Z,15.07
2023-03-06T09:31:21.786Z,15.97
2023-03-06T09:34:31.007Z,15.49
2023-03-06T09:37:37.247Z,16.57
2023-03-06T09:44:21.492Z,17.17
2023-03-06T09:47:50.595Z,17.66
2023-03-06T09:51:13.128Z,18.32
2023-03-06T09:54:24.064Z,17.00
2023-03-06T09:57:36.252Z,17.02
2023-03-06T10:00:54.442Z,15.14
2023-03-06T10:04:27.094Z,15.34
2023-03-06T10:07:49.895Z,16.49
2023-03-06T10:11:05.707Z,18.85
2023-03-06T10:14:26.763Z,18.25
2023-03-06T10:17:41.648Z,17.39
2023-03-06T10:21:16.978Z,14.67
2023-03-06T10:24:56.232Z,14.47
2023-03-06T10:28:18.562Z,13.76
2023-03-06T10:31:29.419Z,12.85
2023-03-06T10:34:44.379Z,11.94
2023-03-06T10:37:51.902Z,13.64
2023-03-06T10:41:19.609Z,11.28
2023-03-06T10:44:29.110Z,10.94
2023-03-06T10:47:37.765Z,11.88
2023-03-06T10:50:43.771Z,10.96
2023-03-06T10:53:58.996Z,9.88
2023-03-06T10:57:32.891Z,9.80
2023-03-06T11:00:39.679Z,9.97
2023-03-06T11:03:45.706Z,10.11
2023-03-06T11:07:08.480Z,10.44
2023-03-06T11:10:23.832Z,9.99
2023-03-06T11:13:36.178Z,10.85
2023-03-06T11:16:42.746Z,8.73
2023-03-06T11:19:49.417Z,9.22
2023-03-06T11:23:03.209Z,8.40
2023-03-06T11:26:32.596Z,9.76
2023-03-06T11:29:46.294Z,10.57
2023-03-06T11:33:02.026Z,10.82
2023-03-06T11:36:21.553Z,12.38
2023-03-06T11:39:39.836Z,10.64
2023-03-06T11:42:59.102Z,10.77
2023-03-06T11:46:22.977Z,8.66
2023-03-06T11:49:41.479Z,7.45
2023-03-06T11:52:56.743Z,11.25
2023-03-06T11:56:23.025Z,11.21
2023-03-06T12:00:24.301Z,9.25
2023-03-06T12:04:16.753Z,10.50
2023-03-06T12:07:35.085Z,10.07
2023-03-06T12:10:52.441Z,8.90
2023-03-06T12:14:25.887Z,8.53
2023-03-06T12:17:57.857Z,7.51
2023-03-06T12:21:23.375Z,6.38
2023-03-06T12:25:21.294Z,5.91
2023-03-06T12:29:05.608Z,7.17
2023-03-06T12:32:30.651Z,7.48
2023-03-06T12:36:17.114Z,7.45
2023-03-06T12:39:45.047Z,6.75
2023-03-06T12:43:40.587Z,5.57
2023-03-06T12:46:54.888Z,6.54
2023-03-06T12:50:10.471Z,7.10
2023-03-06T12:53:30.500Z,8.11
2023-03-06T12:56:38.758Z,6.81
2023-03-06T12:59:48.837Z,7.52
2023-03-06T13:03:21.589Z,7.94
2023-03-06T13:07:05.688Z,8.36
2023-03-06T13:10:25.668Z,9.35
2023-03-06T13:13:37.227Z,9.89
2023-03-06T13:16:43.898Z,10.48
2023-03-06T13:19:50.902Z,10.45
2023-03-06T13:22:57.836Z,9.41
2023-03-06T13:26:12.783Z,10.32
2023-03-06T13:29:55.762Z,11.31
2023-03-06T13:33:01.639Z,19.18
2023-03-06T13:36:27.096Z,24.60
2023-03-06T13:40:29.625Z,11.59
2023-03-06T13:43:45.665Z,11.40
2023-03-06T13:47:02.740Z,10.83
2023-03-06T13:50:38.382Z,10.70
2023-03-06T13:54:30.742Z,11.45
2023-03-06T13:58:04.076Z,12.53
2023-03-06T14:01:43.070Z,12.95
2023-03-06T14:05:00.743Z,12.63
2023-03-06T14:08:17.564Z,14.16
2023-03-06T14:11:25.026Z,15.33
2023-03-06T14:14:45.442Z,13.53
2023-03-06T14:18:03.433Z,18.89
2023-03-06T14:21:15.990Z,10.27
2023-03-06T14:24:34.562Z,8.46
2023-03-06T14:27:56.325Z,10.63
2023-03-06T14:31:08.849Z,12.34
2023-03-06T14:34:26.758Z,13.60
2023-03-06T14:37:35.094Z,11.73
2023-03-06T14:40:48.624Z,12.96
2023-03-06T14:44:10.022Z,17.98
2023-03-06T14:47:28.722Z,21.64
2023-03-06T14:50:41.021Z,21.08
2023-03-06T14:53:49.847Z,14.88
2023-03-06T14:57:06.144Z,12.95
2023-03-06T15:00:24.199Z,13.28
2023-03-06T15:03:45.416Z,14.43
2023-03-06T15:06:56.925Z,12.68
2023-03-06T15:10:10.535Z,13.01
2023-03-06T15:13:26.268Z,13.46
2023-03-06T15:16:34.973Z,13.73
2023-03-06T15:19:43.380Z,15.27
2023-03-06T15:22:54.165Z,19.05
2023-03-06T15:26:03.898Z,17.41
2023-03-06T15:29:26.665Z,26.85
2023-03-06T15:32:42.619Z,18.89
2023-03-06T15:35:58.924Z,22.19
2023-03-06T15:39:41.354Z,29.06
2023-03-06T15:42:50.120Z,20.28
2023-03-06T15:46:03.580Z,30.72
2023-03-06T15:49:20.768Z,30.59
2023-03-06T15:52:27.536Z,38.78
2023-03-06T15:55:36.885Z,31.59
2023-03-06T15:58:44.777Z,28.93
2023-03-06T16:01:53.244Z,32.79
2023-03-06T16:05:02.558Z,34.45
2023-03-06T16:08:11.030Z,32.99
2023-03-06T16:11:35.340Z,29.93
2023-03-06T16:14:50.757Z,36.64
2023-03-06T16:17:56.747Z,59.91
2023-03-06T16:21:03.597Z,45.88
2023-03-06T16:24:09.865Z,51.81
2023-03-06T16:27:25.719Z,51.87
2023-03-06T16:30:35.704Z,47.64
2023-03-06T16:33:42.596Z,69.76
2023-03-06T16:36:50.299Z,104.35
2023-03-06T16:39:56.840Z,698.13
2023-03-06T16:43:05.278Z,2319.58
2023-03-06T16:46:20.612Z,1597.02
2023-03-06T16:49:27.953Z,1271.10
2023-03-06T16:52:34.871Z,2058.85
2023-03-06T16:55:40.808Z,1098.83
2023-03-06T16:58:52.023Z,422.44
2023-03-06T17:01:57.855Z,206.96
2023-03-06T17:05:04.644Z,208.90
2023-03-06T17:08:10.670Z,130.96
2023-03-06T17:11:18.118Z,128.11
2023-03-06T17:14:26.591Z,196.38
2023-03-06T17:17:33.237Z,89.18
2023-03-06T17:20:39.085Z,93.06
2023-03-06T17:23:47.042Z,38.15
2023-03-06T17:26:53.048Z,38.51
2023-03-06T17:30:04.480Z,43.49
2023-03-06T17:33:10.312Z,40.76
2023-03-06T17:36:19.548Z,43.98
2023-03-06T17:39:26.027Z,36.75
2023-03-06T17:42:32.689Z,38.27
2023-03-06T17:45:41.999Z,28.52
2023-03-06T17:48:49.655Z,26.59
2023-03-06T17:51:56.640Z,30.89
2023-03-06T17:55:03.203Z,29.23
2023-03-06T18:01:21.641Z,31.99
2023-03-06T18:04:28.661Z,35.84
2023-03-06T18:07:34.476Z,37.57
2023-03-06T18:10:43.514Z,37.04
2023-03-06T18:13:49.323Z,49.44
2023-03-06T18:16:58.508Z,332.11
2023-03-06T18:20:04.627Z,501.41
2023-03-06T18:23:11.903Z,159.67
2023-03-06T18:26:21.007Z,46.95
2023-03-06T18:29:27.711Z,166.91
2023-03-06T18:32:36.212Z,55.02
2023-03-06T18:35:44.214Z,40.19
2023-03-06T18:38:50.190Z,40.26
2023-03-06T18:41:56.896Z,122.83
2023-03-06T18:45:03.236Z,126.28
2023-03-06T18:48:12.575Z,80.38
2023-03-06T18:51:20.376Z,37.73
2023-03-06T18:54:28.748Z,32.62
2023-03-06T18:57:34.595Z,38.44
2023-03-06T19:00:41.218Z,34.96
2023-03-06T19:03:53.133Z,30.79
2023-03-06T19:06:59.845Z,30.76
2023-03-06T19:10:06.149Z,29.90
2023-03-06T19:13:14.225Z,31.28
2023-03-06T19:16:23.266Z,33.50
2023-03-06T19:19:32.721Z,34.03
2023-03-06T19:22:38.601Z,35.32
2023-03-06T19:25:45.437Z,34.30
2023-03-06T19:28:56.570Z,34.56
2023-03-06T19:32:04.428Z,35.78
2023-03-06T19:35:13.850Z,38.55
2023-03-06T19:38:21.026Z,38.45
2023-03-06T19:41:28.157Z,40.62
2023-03-06T19:44:35.692Z,38.08
2023-03-06T19:47:41.682Z,39.19
2023-03-06T19:50:52.464Z,42.22
2023-03-06T19:53:59.817Z,40.04
2023-03-06T19:57:06.870Z,37.20
2023-03-06T20:00:16.228Z,37.15
2023-03-06T20:03:22.863Z,38.77
2023-03-06T20:06:36.809Z,38.39
2023-03-06T20:09:44.025Z,38.97
2023-03-06T20:12:55.144Z,38.75
2023-03-06T20:16:06.292Z,37.14
2023-03-06T20:19:13.924Z,36.38
2023-03-06T20:22:23.598Z,36.77
2023-03-06T20:25:29.989Z,38.13
2023-03-06T20:28:38.077Z,37.36
2023-03-06T20:31:45.627Z,38.73
2023-03-06T20:34:55.369Z,39.34
2023-03-06T20:38:04.151Z,35.88
2023-03-06T20:41:18.573Z,35.98
2023-03-06T20:44:24.405Z,38.73
2023-03-06T20:47:32.883Z,45.97
2023-03-06T20:50:39.022Z,59.86
2023-03-06T20:53:50.838Z,61.52
2023-03-06T20:56:58.235Z,52.05
2023-03-06T21:00:05.412Z,45.92
2023-03-06T21:03:11.355Z,53.89
2023-03-06T21:06:18.907Z,47.68
2023-03-06T21:09:27.268Z,44.76
2023-03-06T21:12:36.429Z,48.80
2023-03-06T21:15:42.702Z,49.17
2023-03-06T21:18:50.277Z,43.56
2023-03-06T21:21:56.328Z,41.86
2023-03-06T21:25:05.558Z,40.35
2023-03-06T21:28:11.307Z,40.40
2023-03-06T21:31:22.197Z,40.52
2023-03-06T21:34:28.347Z,40.22
2023-03-06T21:37:35.283Z,40.67
2023-03-06T21:40:45.525Z,40.86
2023-03-06T21:43:52.106Z,40.36
2023-03-06T21:46:57.796Z,37.80
2023-03-06T21:50:04.352Z,36.46
2023-03-06T21:53:12.463Z,42.05
2023-03-06T21:56:25.486Z,41.87
2023-03-06T21:59:31.425Z,43.68
2023-03-06T22:02:38.500Z,45.59
2023-03-06T22:05:44.786Z,46.15
2023-03-06T22:08:51.855Z,46.96
2023-03-06T22:12:00.393Z,46.79
2023-03-06T22:15:09.560Z,46.20
2023-03-06T22:18:16.054Z,44.71
2023-03-06T22:21:26.057Z,43.08
2023-03-06T22:24:31.881Z,43.29
2023-03-06T22:27:41.152Z,44.25
2023-03-06T22:30:46.891Z,42.34
2023-03-06T22:33:55.343Z,41.28
2023-03-06T22:37:01.328Z,42.35
2023-03-06T22:40:09.809Z,42.04
2023-03-06T22:43:20.164Z,42.98
2023-03-06T22:46:27.974Z,44.53
2023-03-06T22:49:33.818Z,43.91
2023-03-06T22:52:40.460Z,43.34
2023-03-06T22:55:46.272Z,43.22
2023-03-06T22:58:55.585Z,41.48
2023-03-06T23:02:01.441Z,36.09
2023-03-06T23:05:09.833Z,34.61
2023-03-06T23:08:17.307Z,33.17
2023-03-06T23:11:26.001Z,33.94
2023-03-06T23:14:53.182Z,33.76
2023-03-06T23:18:18.213Z,34.85
2023-03-06T23:21:43.028Z,39.31
2023-03-06T23:25:09.745Z,41.65
2023-03-06T23:28:15.801Z,43.03
2023-03-06T23:31:28.737Z,43.14
2023-03-06T23:34:34.746Z,46.59
2023-03-06T23:37:42.830Z,46.62
2023-03-06T23:40:49.755Z,45.01
2023-03-06T23:43:56.642Z,44.29
2023-03-06T23:47:05.651Z,43.61
2023-03-06T23:50:14.203Z,43.76
2023-03-06T23:53:20.645Z,43.07
2023-03-06T23:56:27.920Z,44.91
2023-03-06T23:59:33.764Z,45.10
